Data for 04/11/2015

Time Sea-Level Adjusted Pressure Absolute Pressure Temperature Relative Humidity Dew Point   
(mb) (inHg) (mb) (inHg) (C) (F) (%) (C) (F)
00:05 1012 29.88 841 24.83 10.8 51.4 28 -6.9 19.6
00:10 1012 29.88 841 24.83 10.8 51.4 28 -7 19.4
00:15 1012 29.88 841 24.83 10.7 51.3 28 -7.2 19.1
00:20 1012 29.88 841 24.83 10.7 51.3 28 -7.2 19
00:25 1012 29.88 841 24.83 10.6 51 29 -6.6 20.2
00:30 1012 29.88 841 24.83 10.3 50.5 28 -7.3 18.9
00:35 1012 29.88 841 24.83 10.3 50.5 27 -8 17.6
00:40 1012 29.88 841 24.83 10.8 51.4 25 -8.6 16.6
00:45 1012 29.88 841 24.83 11.1 52 25 -8.2 17.3
00:50 1012 29.88 841 24.83 11.1 51.9 25 -8.2 17.3
00:55 1012 29.88 841 24.83 11 51.8 25 -8.4 16.9
01:00 1012 29.88 841 24.83 11.1 52 24 -8.6 16.5
01:05 1012 29.88 841 24.83 11.2 52.1 24 -8.5 16.7
01:10 1012 29.88 841 24.83 11.1 51.9 25 -8.1 17.4
01:15 1012 29.88 841 24.83 10.8 51.4 25 -8.5 16.7
01:20 1012 29.88 841 24.83 10.7 51.2 26 -8.3 17.1
01:25 1012 29.88 841 24.83 10.5 50.9 26 -8.2 17.3
01:30 1012 29.88 841 24.83 10.4 50.6 27 -7.8 17.9
01:35 1012 29.88 841 24.83 10.1 50.2 27 -7.9 17.8
01:40 1012 29.88 841 24.83 10 50 27 -7.9 17.7
01:45 1012 29.88 841 24.83 10.1 50.1 27 -8 17.7
01:50 1012 29.88 841 24.83 10 49.9 27 -8.1 17.5
01:55 1012 29.88 841 24.83 9.8 49.6 28 -7.8 17.9
02:00 1011 29.85 841 24.83 9.5 49.1 29 -7.8 17.9
02:05 1011 29.85 841 24.83 9.3 48.7 29 -7.7 18.1
02:10 1011 29.85 841 24.83 9.5 49 28 -8 17.5
02:15 1011 29.85 840 24.81 9.8 49.6 27 -8.2 17.3
02:20 1011 29.85 840 24.81 9.9 49.8 28 -7.9 17.9
02:25 1011 29.85 840 24.81 10 50 27 -8.3 17
02:30 1011 29.85 840 24.81 10 50.1 28 -7.6 18.4
02:35 1011 29.85 840 24.81 9.8 49.6 28 -7.8 17.9
02:40 1011 29.85 840 24.81 9.8 49.6 27 -8.2 17.3
02:45 1011 29.85 840 24.81 9.9 49.9 28 -7.9 17.7
02:50 1011 29.85 840 24.81 9.8 49.7 27 -8.1 17.5
02:55 1011 29.85 840 24.81 9.8 49.6 27 -8.2 17.2
03:00 1011 29.85 840 24.81 9.8 49.6 27 -8.3 17
03:05 1011 29.85 840 24.81 9.6 49.4 28 -7.9 17.7
03:10 1011 29.85 840 24.81 9.3 48.8 29 -8 17.5
03:15 1011 29.85 840 24.81 9.1 48.3 29 -8 17.6
03:20 1011 29.85 840 24.81 8.8 47.8 30 -7.8 18
03:25 1011 29.85 840 24.81 8.4 47.1 31 -7.6 18.2
03:30 1011 29.85 840 24.81 8.1 46.6 31 -8 17.7
03:35 1010 29.83 840 24.81 8.3 46.9 31 -8 17.7
03:40 1010 29.83 840 24.81 8.2 46.8 31 -7.8 18
03:45 1010 29.83 840 24.81 8.1 46.5 31 -7.9 17.9
03:50 1010 29.83 840 24.81 8.3 46.9 30 -8.5 16.7
03:55 1010 29.83 839 24.78 8.5 47.4 30 -8.1 17.3
04:00 1010 29.83 839 24.78 8.4 47.1 30 -8.1 17.4
04:05 1010 29.83 839 24.78 8.5 47.3 29 -8.6 16.6
04:10 1010 29.83 839 24.78 9.3 48.8 27 -8.7 16.3
04:15 1010 29.83 839 24.78 9.6 49.2 27 -8.5 16.7
04:20 1010 29.83 839 24.78 9.6 49.3 27 -8.4 16.8
04:25 1010 29.83 839 24.78 9.7 49.4 27 -8.5 16.7
04:30 1010 29.83 839 24.78 9.7 49.4 27 -8.6 16.5
04:35 1010 29.83 839 24.78 10 49.9 26 -8.6 16.5
04:40 1010 29.83 839 24.78 10.1 50.1 25 -8.9 16
04:45 1010 29.83 839 24.78 10.2 50.4 25 -8.8 16.2
04:50 1010 29.83 839 24.78 10.3 50.6 25 -8.7 16.4
04:55 1010 29.83 839 24.78 10.4 50.7 25 -8.9 16
05:00 1010 29.83 839 24.78 10.5 50.9 25 -8.8 16.2
05:05 1010 29.83 839 24.78 10.7 51.3 24 -9 15.8
05:10 1010 29.83 839 24.78 10.8 51.4 24 -9.2 15.4
05:15 1010 29.83 839 24.78 11 51.8 23 -9.1 15.6
05:20 1009 29.8 839 24.78 11.1 51.9 23 -9.3 15.2
05:25 1009 29.8 839 24.78 11.2 52.2 23 -9.3 15.2
05:30 1009 29.8 839 24.78 11.2 52.2 23 -9.2 15.4
05:35 1009 29.8 839 24.78 11.5 52.7 22 -9.3 15.3
05:40 1009 29.8 839 24.78 11.5 52.6 22 -9.6 14.8
05:45 1009 29.8 839 24.78 11.5 52.7 23 -9.2 15.5
05:50 1009 29.8 839 24.78 11.3 52.4 23 -9.3 15.2
05:55 1009 29.8 839 24.78 11.3 52.4 23 -9.1 15.6
06:00 1009 29.8 839 24.78 11.3 52.3 23 -9.4 15.1
06:05 1009 29.8 839 24.78 11.5 52.6 22 -9.4 15
06:10 1009 29.8 839 24.78 11.5 52.6 22 -9.2 15.4
06:15 1009 29.8 838 24.75 11.4 52.5 24 -8.7 16.3
06:20 1009 29.8 838 24.75 11.3 52.4 23 -9 15.7
06:25 1009 29.8 838 24.75 11.3 52.3 23 -9.1 15.6
06:30 1009 29.8 838 24.75 11.2 52.1 24 -8.9 16.1
06:35 1009 29.8 838 24.75 11 51.7 23 -9.2 15.5
06:40 1009 29.8 838 24.75 11 51.7 24 -8.9 16
06:45 1009 29.8 838 24.75 10.9 51.6 24 -8.7 16.3
06:50 1009 29.8 838 24.75 10.9 51.6 24 -8.8 16.2
06:55 1009 29.8 838 24.75 10.9 51.6 25 -8.4 16.9
07:00 1009 29.8 838 24.75 10.9 51.6 24 -8.6 16.4
07:05 1009 29.8 838 24.75 11 51.8 24 -9.1 15.7
07:10 1009 29.8 838 24.75 11.2 52.2 24 -8.6 16.5
07:15 1009 29.8 838 24.75 11.3 52.3 24 -8.7 16.4
07:20 1009 29.8 838 24.75 11.3 52.4 23 -8.9 16
07:25 1009 29.8 838 24.75 11.3 52.3 24 -8.4 16.9
07:30 1009 29.8 839 24.78 11.3 52.4 24 -8.4 16.8
07:35 1009 29.8 839 24.78 11.4 52.4 25 -8.2 17.2
07:40 1009 29.8 839 24.78 11.4 52.4 25 -8.1 17.4
07:45 1009 29.8 839 24.78 11.5 52.7 24 -8.1 17.4
07:50 1009 29.8 839 24.78 11.6 53 25 -7.7 18.2
07:55 1009 29.8 839 24.78 11.4 52.5 26 -7.5 18.5
08:00 1009 29.8 839 24.78 10.8 51.4 27 -7.6 18.3
08:05 1009 29.8 838 24.75 10.5 50.8 28 -7.5 18.5
08:10 1009 29.8 838 24.75 10.6 51.1 29 -6.7 20
08:15 1009 29.8 838 24.75 10.7 51.2 29 -6.6 20.1
08:20 1009 29.8 838 24.75 10.8 51.5 29 -6.3 20.6
08:25 1009 29.8 838 24.75 10.9 51.7 28 -6.7 20
08:30 1009 29.8 838 24.75 11.1 52 28 -6.6 20.1
08:35 1009 29.8 838 24.75 11.3 52.4 29 -6.1 20.9
08:40 1009 29.8 838 24.75 11.5 52.7 29 -5.9 21.4
08:45 1009 29.8 838 24.75 11.6 52.8 29 -6 21.3
08:50 1009 29.8 838 24.75 11.7 53 29 -5.8 21.6
08:55 1009 29.8 838 24.75 11.8 53.2 28 -6.1 21
09:00 1009 29.8 838 24.75 11.9 53.3 28 -5.9 21.3
09:05 1009 29.8 838 24.75 11.8 53.2 28 -5.9 21.4
09:10 1009 29.8 838 24.75 12 53.6 25 -7.3 18.9
09:15 1009 29.8 838 24.75 12.2 53.9 25 -7.3 18.9
09:20 1009 29.8 838 24.75 12.3 54.1 23 -8.5 16.8
09:25 1009 29.8 838 24.75 12.4 54.4 25 -7.3 18.9
09:30 1009 29.8 838 24.75 12.5 54.5 25 -7.1 19.2
09:35 1009 29.8 838 24.75 12.6 54.6 25 -6.9 19.6
09:40 1009 29.8 838 24.75 12.6 54.6 25 -7 19.4
09:45 1009 29.8 838 24.75 12.6 54.7 21 -9 15.8
09:50 1009 29.8 838 24.75 12.9 55.1 22 -8.5 16.7
09:55 1009 29.8 838 24.75 12.9 55.2 22 -8.5 16.8
10:00 1009 29.8 838 24.75 13 55.4 20 -9.2 15.4
10:05 1009 29.8 838 24.75 13.1 55.6 20 -9.4 15.1
10:10 1009 29.8 838 24.75 13.1 55.6 20 -9.5 14.9
10:15 1008 29.77 838 24.75 13.2 55.7 20 -9.4 15.1
10:20 1008 29.77 838 24.75 13.2 55.7 20 -9 15.9
10:25 1008 29.77 838 24.75 13.2 55.7 20 -9.4 15
10:30 1008 29.77 838 24.75 13.3 55.9 20 -9 15.8
10:35 1008 29.77 838 24.75 13.3 56 20 -9.4 15
10:40 1008 29.77 838 24.75 13.3 55.9 20 -9 15.8
10:45 1008 29.77 837 24.72 13.3 55.9 19 -9.9 14.2
10:50 1008 29.77 837 24.72 13.3 55.9 20 -9.5 14.8
10:55 1008 29.77 837 24.72 13.3 55.9 20 -9.4 15.2
11:00 1008 29.77 837 24.72 13.3 56 19 -9.7 14.6
11:05 1008 29.77 837 24.72 13.4 56 19 -9.5 14.9
11:10 1008 29.77 837 24.72 13.4 56 19 -10 13.9
11:15 1008 29.77 837 24.72 13.3 56 18 -10.3 13.5
11:20 1008 29.77 837 24.72 13.3 56 20 -9.1 15.6
11:25 1008 29.77 837 24.72 13.3 55.9 20 -9 15.9
11:30 1008 29.77 837 24.72 13.3 55.9 20 -8.9 15.9
11:35 1008 29.77 837 24.72 13.3 55.9 19 -10 14
11:40 1008 29.77 837 24.72 13.3 55.9 20 -9.1 15.6
11:45 1008 29.77 837 24.72 13.3 55.9 20 -8.9 15.9
11:50 1008 29.77 837 24.72 13.3 56 20 -8.8 16.1
11:55 1008 29.77 837 24.72 13.4 56.1 21 -8.7 16.4
12:00 1008 29.77 837 24.72 13.4 56.2 20 -9.4 15.1
12:05 1008 29.77 837 24.72 13.4 56.1 20 -9 15.8
12:10 1008 29.77 837 24.72 13.4 56.2 20 -8.8 16.2
12:15 1008 29.77 837 24.72 13.5 56.3 21 -8.5 16.6
12:20 1008 29.77 837 24.72 13.5 56.4 20 -8.9 15.9
12:25 1008 29.77 837 24.72 13.6 56.5 20 -9 15.8
12:30 1008 29.77 837 24.72 13.8 56.8 20 -8.6 16.5
12:35 1008 29.77 837 24.72 13.6 56.5 20 -8.9 16
12:40 1007 29.74 837 24.72 13.7 56.6 20 -8.8 16.1
12:45 1007 29.74 837 24.72 14 57.3 20 -8.2 17.2
12:50 1007 29.74 837 24.72 14 57.1 20 -8.5 16.7
12:55 1007 29.74 836 24.69 14 57.1 21 -7.9 17.7
13:00 1007 29.74 836 24.69 14.1 57.3 21 -8 17.6
13:05 1007 29.74 836 24.69 14.1 57.3 20 -8.5 16.7
13:10 1007 29.74 836 24.69 14.4 58 20 -8 17.6
13:15 1007 29.74 836 24.69 14.4 57.8 21 -7.9 17.7
13:20 1007 29.74 836 24.69 14.5 58 20 -8 17.7
13:25 1007 29.74 836 24.69 14.4 58 22 -7.3 18.9
13:30 1007 29.74 836 24.69 14.7 58.5 22 -6.8 19.7
13:35 1007 29.74 836 24.69 14.5 58 21 -7.5 18.6
13:40 1007 29.74 836 24.69 14.3 57.7 21 -7.4 18.7
13:45 1007 29.74 836 24.69 14.2 57.6 22 -7.4 18.7
13:50 1007 29.74 836 24.69 14.4 57.9 23 -6.6 20.2
13:55 1007 29.74 836 24.69 14.5 58.2 22 -6.7 19.9
14:00 1007 29.74 836 24.69 14 57.2 23 -6.7 19.9
14:05 1007 29.74 836 24.69 14 57.2 23 -6.5 20.2
14:10 1007 29.74 836 24.69 14 57.3 24 -6.4 20.5
14:15 1007 29.74 836 24.69 13.9 57 25 -6 21.2
14:20 1007 29.74 836 24.69 13.4 56.2 27 -5.3 22.5
14:25 1007 29.74 836 24.69 12.9 55.3 27 -5.4 22.2
14:30 1007 29.74 836 24.69 13.1 55.5 28 -4.8 23.4
14:35 1007 29.74 836 24.69 12.9 55.2 28 -5.1 22.9
14:40 1007 29.74 836 24.69 12.9 55.1 29 -4.6 23.8
14:45 1007 29.74 836 24.69 13.1 55.6 27 -5.4 22.3
14:50 1007 29.74 836 24.69 13.3 56 28 -4.9 23.1
14:55 1007 29.74 836 24.69 13.4 56.1 28 -4.8 23.3
15:00 1007 29.74 836 24.69 13.1 55.6 32 -3.4 25.9
15:05 1007 29.74 836 24.69 12.6 54.7 31 -3.9 25
15:10 1007 29.74 836 24.69 12.4 54.4 30 -4.4 24
15:15 1007 29.74 836 24.69 12.4 54.3 31 -4.1 24.6
15:20 1007 29.74 836 24.69 12.6 54.6 32 -3.8 25.2
15:25 1007 29.74 836 24.69 12.4 54.3 32 -3.9 25
15:30 1007 29.74 836 24.69 12.1 53.8 32 -4 24.9
15:35 1007 29.74 836 24.69 11.8 53.2 34 -3.4 25.8
15:40 1007 29.74 836 24.69 12 53.6 33 -3.7 25.3
15:45 1007 29.74 836 24.69 11.8 53.2 34 -3.5 25.7
15:50 1007 29.74 836 24.69 11.7 53.1 35 -3.4 25.9
15:55 1007 29.74 836 24.69 11.5 52.7 35 -3.5 25.6
16:00 1007 29.74 836 24.69 11.5 52.7 34 -4 24.8
16:05 1007 29.74 836 24.69 11.4 52.5 34 -3.9 25
16:10 1007 29.74 836 24.69 11.3 52.4 37 -2.9 26.8
16:15 1007 29.74 836 24.69 11 51.9 38 -2.6 27.3
16:20 1007 29.74 836 24.69 10.8 51.4 38 -2.8 27
16:25 1007 29.74 836 24.69 10.8 51.5 40 -2.2 28
16:30 1007 29.74 836 24.69 10.6 51 41 -2.2 28.1
16:35 1007 29.74 836 24.69 10.3 50.6 43 -1.8 28.7
16:40 1007 29.74 836 24.69 9.9 49.9 46 -1.1 30.1
16:45 1007 29.74 836 24.69 9.6 49.2 48 -1 30.3
16:50 1007 29.74 836 24.69 9.6 49.3 47 -1.2 29.8
16:55 1007 29.74 836 24.69 9.7 49.4 47 -1.2 29.8
17:00 1007 29.74 836 24.69 9.8 49.6 45 -1.5 29.4
17:05 1007 29.74 836 24.69 9.8 49.6 45 -1.5 29.3
17:10 1007 29.74 836 24.69 9.8 49.6 45 -1.6 29.1
17:15 1007 29.74 836 24.69 9.7 49.5 46 -1.3 29.6
17:20 1007 29.74 836 24.69 9.5 49.2 48 -0.9 30.4
17:25 1007 29.74 836 24.69 9.3 48.8 50 -0.7 30.8
17:30 1007 29.74 836 24.69 9.1 48.4 50 -0.7 30.8
17:35 1007 29.74 836 24.69 9 48.2 51 -0.6 30.9
17:40 1007 29.74 836 24.69 9 48.2 50 -0.8 30.6
17:45 1007 29.74 836 24.69 9 48.1 51 -0.6 30.9
17:50 1007 29.74 836 24.69 8.9 48.1 51 -0.6 31
17:55 1007 29.74 836 24.69 8.9 48.1 51 -0.7 30.8
18:00 1007 29.74 836 24.69 8.9 48 52 -0.5 31.1
18:05 1007 29.74 836 24.69 8.8 47.8 54 -0.1 31.8
18:10 1007 29.74 836 24.69 8.7 47.6 54 0 32.1
18:15 1007 29.74 836 24.69 8.5 47.3 58 0.7 33.3
18:20 1007 29.74 836 24.69 8.2 46.8 59 0.7 33.3
18:25 1007 29.74 836 24.69 7.8 46.1 62 0.9 33.7
18:30 1007 29.74 836 24.69 7.6 45.7 62 0.9 33.6
18:35 1007 29.74 837 24.72 7.6 45.6 64 1.3 34.3
18:40 1007 29.74 837 24.72 7.3 45.1 67 1.6 34.8
18:45 1007 29.74 836 24.69 7.2 44.9 66 1.2 34.2
18:50 1007 29.74 836 24.69 7.1 44.9 66 1.3 34.3
18:55 1007 29.74 836 24.69 7.1 44.7 67 1.4 34.4
19:00 1007 29.74 836 24.69 7 44.5 67 1.4 34.5
19:05 1007 29.74 837 24.72 6.9 44.4 68 1.4 34.6
19:10 1007 29.74 837 24.72 6.9 44.4 68 1.4 34.5
19:15 1007 29.74 837 24.72 6.9 44.4 71 2 35.5
19:20 1007 29.74 837 24.72 6.9 44.4 67 1.1 34
19:25 1007 29.74 837 24.72 7 44.6 67 1.3 34.3
19:30 1008 29.77 837 24.72 7 44.6 68 1.5 34.6
19:35 1008 29.77 837 24.72 7.1 44.8 65 1 33.9
19:40 1008 29.77 837 24.72 6.6 43.9 72 2 35.6
19:45 1008 29.77 837 24.72 5.4 41.7 76 1.6 34.9
19:50 1008 29.77 838 24.75 5 41 78 1.5 34.7
19:55 1009 29.8 838 24.75 4.7 40.5 77 1.1 34
20:00 1009 29.8 838 24.75 4.6 40.2 76 0.7 33.3
20:05 1009 29.8 838 24.75 4.4 40 80 1.2 34.2
20:10 1009 29.8 838 24.75 4 39.2 83 1.4 34.6
20:15 1009 29.8 838 24.75 3.5 38.3 85 1.2 34.2
20:20 1009 29.8 838 24.75 3.1 37.7 84 0.7 33.3
20:25 1009 29.8 839 24.78 3 37.5 84 0.5 33
20:30 1010 29.83 839 24.78 3.2 37.7 83 0.6 33
20:35 1010 29.83 839 24.78 3.4 38.1 82 0.6 33.2
20:40 1010 29.83 839 24.78 3.6 38.4 79 0.3 32.6
20:45 1010 29.83 839 24.78 3.6 38.5 76 -0.1 31.8
20:50 1010 29.83 839 24.78 3.7 38.7 75 -0.3 31.4
20:55 1010 29.83 840 24.81 3.8 38.9 74 -0.4 31.2
21:00 1010 29.83 840 24.81 3.9 39 72 -0.7 30.8
21:05 1011 29.85 840 24.81 3.9 39.1 70 -1 30.3
21:10 1011 29.85 840 24.81 3.7 38.6 73 -0.8 30.6
21:15 1011 29.85 840 24.81 3.5 38.2 75 -0.6 30.9
21:20 1011 29.85 840 24.81 3.3 38 77 -0.4 31.2
21:25 1011 29.85 840 24.81 3.2 37.7 78 -0.3 31.4
21:30 1011 29.85 840 24.81 3.2 37.7 78 -0.2 31.6
21:35 1011 29.85 840 24.81 3 37.4 80 -0.2 31.6
21:40 1011 29.85 840 24.81 2.7 36.8 82 -0 32
21:45 1011 29.85 840 24.81 2.2 35.9 85 -0.2 31.7
21:50 1011 29.85 840 24.81 2 35.6 85 -0.2 31.6
21:55 1011 29.85 840 24.81 1.9 35.4 86 -0.2 31.6
22:00 1011 29.85 841 24.83 1.7 35 87 -0.3 31.5
22:05 1011 29.85 841 24.83 1.3 34.3 89 -0.3 31.5
22:10 1011 29.85 841 24.83 0.9 33.6 91 -0.4 31.2
22:15 1011 29.85 841 24.83 0.7 33.3 92 -0.5 31.2
22:20 1011 29.85 841 24.83 0.6 33.1 92 -0.5 31.1
22:25 1011 29.85 841 24.83 0.5 33 93 -0.5 31.2
22:30 1011 29.85 841 24.83 0.5 32.9 93 -0.5 31.2
22:35 1011 29.85 841 24.83 0.5 32.9 93 -0.5 31.1
22:40 1011 29.85 841 24.83 0.4 32.8 94 -0.5 31.1
22:45 1011 29.85 841 24.83 0.4 32.8 94 -0.5 31.2
22:50 1011 29.85 840 24.81 0.4 32.8 94 -0.5 31.1
22:55 1011 29.85 841 24.83 0.4 32.8 94 -0.4 31.3
23:00 1011 29.85 841 24.83 0.5 33 94 -0.4 31.4
23:05 1012 29.88 841 24.83 0.6 33 94 -0.3 31.4
23:10 1012 29.88 841 24.83 0.5 32.9 94 -0.4 31.3
23:15 1012 29.88 841 24.83 0.5 32.8 94 -0.4 31.2
23:20 1012 29.88 841 24.83 0.4 32.7 94 -0.5 31.1
23:25 1012 29.88 841 24.83 0.3 32.5 94 -0.6 31
23:30 1012 29.88 841 24.83 0.3 32.5 94 -0.5 31
23:35 1012 29.88 841 24.83 0.3 32.6 94 -0.5 31.1
23:40 1012 29.88 841 24.83 0.3 32.6 94 -0.5 31.2
23:45 1012 29.88 841 24.83 0.3 32.6 94 -0.5 31.1
23:50 1012 29.88 841 24.83 0.3 32.6 94 -0.5 31.1
23:55 1012 29.88 841 24.83 0.3 32.5 94 -0.6 31
24:00 1012 29.88 841 24.83 0.2 32.4 94 -0.7 30.8